createdAt,value
2022-11-10T05:50:44.140Z,14.30
2022-11-10T05:53:53.077Z,13.25
2022-11-10T05:57:01.858Z,13.23
2022-11-10T06:00:11.723Z,15.32
2022-11-10T06:03:21.386Z,8.68
2022-11-10T06:06:30.851Z,8.00
2022-11-10T06:09:39.766Z,13.50
2022-11-10T06:12:48.808Z,15.43
2022-11-10T06:15:57.676Z,10.90
2022-11-10T06:19:06.611Z,8.90
2022-11-10T06:22:15.740Z,14.88
2022-11-10T06:25:24.942Z,15.43
2022-11-10T06:28:33.738Z,10.82
2022-11-10T06:31:42.492Z,14.68
2022-11-10T06:34:51.114Z,9.20
2022-11-10T06:38:05.708Z,15.57
2022-11-10T06:41:14.581Z,16.58
2022-11-10T06:44:23.619Z,16.88
2022-11-10T06:47:32.489Z,10.27
2022-11-10T06:50:41.462Z,9.30
2022-11-10T06:53:50.312Z,15.38
2022-11-10T06:56:59.020Z,16.10
2022-11-10T07:00:08.778Z,19.63
2022-11-10T07:03:18.021Z,11.57
2022-11-10T07:06:27.240Z,13.82
2022-11-10T07:09:36.322Z,12.82
2022-11-10T07:12:45.486Z,19.15
2022-11-10T07:15:54.342Z,16.58
2022-11-10T07:19:03.208Z,14.15
2022-11-10T07:22:12.478Z,19.27
2022-11-10T07:25:21.632Z,19.90
2022-11-10T07:28:30.464Z,18.70
2022-11-10T07:31:39.364Z,24.65
2022-11-10T07:34:48.231Z,27.98
2022-11-10T07:37:58.459Z,14.77
2022-11-10T07:41:07.761Z,16.48
2022-11-10T07:44:16.839Z,19.83
2022-11-10T07:47:25.474Z,16.00
2022-11-10T07:50:34.406Z,24.85
2022-11-10T07:53:43.901Z,15.13
2022-11-10T07:56:53.391Z,11.27
2022-11-10T08:00:03.106Z,16.02
2022-11-10T08:03:15.103Z,14.90
2022-11-10T08:06:23.937Z,13.27
2022-11-10T08:09:32.832Z,10.45
2022-11-10T08:12:42.081Z,13.15
2022-11-10T08:15:50.932Z,14.25
2022-11-10T08:18:59.862Z,12.63
2022-11-10T08:22:08.979Z,10.00
2022-11-10T08:25:17.963Z,8.80
2022-11-10T08:28:27.657Z,11.70
2022-11-10T08:31:38.284Z,7.85
2022-11-10T08:34:47.209Z,10.77
2022-11-10T08:37:56.375Z,8.98
2022-11-10T08:41:05.596Z,6.95
2022-11-10T08:44:19.648Z,8.07
2022-11-10T08:47:29.899Z,10.35
2022-11-10T08:50:39.418Z,5.85
2022-11-10T08:53:48.561Z,6.18
2022-11-10T08:56:57.283Z,7.40
2022-11-10T09:00:07.053Z,8.13
2022-11-10T09:03:26.581Z,16.08
2022-11-10T09:06:35.977Z,11.70
2022-11-10T09:09:53.122Z,5.00
2022-11-10T09:13:15.564Z,10.85
2022-11-10T09:16:24.577Z,5.93
2022-11-10T09:19:33.676Z,7.65
2022-11-10T09:22:42.921Z,7.35
2022-11-10T09:25:53.791Z,6.50
2022-11-10T09:29:02.569Z,10.10
2022-11-10T09:32:11.503Z,8.13
2022-11-10T09:35:20.877Z,8.77
2022-11-10T09:38:30.017Z,7.93
2022-11-10T09:41:41.074Z,5.57
2022-11-10T09:45:00.001Z,4.97
2022-11-10T09:48:18.461Z,11.07
2022-11-10T09:51:33.184Z,4.72
2022-11-10T09:54:54.023Z,8.80
2022-11-10T09:58:03.568Z,11.68
2022-11-10T10:01:27.637Z,8.63
2022-11-10T10:05:06.942Z,11.75
2022-11-10T10:08:31.750Z,13.02
2022-11-10T10:11:59.591Z,10.90
2022-11-10T10:15:27.484Z,10.77
2022-11-10T10:19:01.466Z,8.93
2022-11-10T10:22:32.261Z,9.18
2022-11-10T10:25:45.660Z,11.45
2022-11-10T10:28:55.407Z,7.00
2022-11-10T10:32:04.778Z,9.50
2022-11-10T10:35:15.555Z,8.13
2022-11-10T10:38:35.704Z,10.27
2022-11-10T10:41:45.949Z,8.18
2022-11-10T10:45:24.715Z,5.90
2022-11-10T10:48:34.380Z,3.45
2022-11-10T10:51:44.431Z,7.50
2022-11-10T10:55:01.282Z,6.05
2022-11-10T10:58:26.789Z,6.93
2022-11-10T11:01:40.394Z,11.80
2022-11-10T11:05:08.455Z,5.65
2022-11-10T11:08:18.588Z,13.32
2022-11-10T11:11:27.730Z,7.40
2022-11-10T11:14:38.646Z,10.00
2022-11-10T11:17:59.465Z,10.57
2022-11-10T11:21:28.405Z,10.15
2022-11-10T11:24:43.740Z,6.80
2022-11-10T11:28:11.737Z,2.22
2022-11-10T11:31:58.875Z,6.10
2022-11-10T11:35:19.595Z,7.53
2022-11-10T11:38:44.192Z,7.45
2022-11-10T11:42:14.044Z,8.15
2022-11-10T11:45:26.220Z,5.95
2022-11-10T11:49:10.508Z,5.30
2022-11-10T11:52:22.378Z,7.13
2022-11-10T11:55:36.815Z,5.68
2022-11-10T11:59:15.065Z,2.40
2022-11-10T12:02:52.705Z,5.15
2022-11-10T12:06:44.225Z,8.65
2022-11-10T12:10:31.266Z,5.15
2022-11-10T12:14:15.618Z,3.15
2022-11-10T12:17:42.801Z,9.77
2022-11-10T12:21:02.581Z,4.50
2022-11-10T12:24:19.292Z,10.57
2022-11-10T12:27:40.786Z,5.32
2022-11-10T12:30:55.391Z,5.80
2022-11-10T12:34:30.765Z,2.63
2022-11-10T12:37:52.767Z,2.65
2022-11-10T12:41:15.277Z,8.20
2022-11-10T12:44:35.440Z,6.50
2022-11-10T12:47:46.986Z,4.05
2022-11-10T12:51:13.649Z,6.35
2022-11-10T12:54:26.972Z,5.47
2022-11-10T12:57:37.475Z,7.78
2022-11-10T13:01:12.262Z,1.67
2022-11-10T13:04:21.041Z,6.78
2022-11-10T13:07:30.164Z,7.93
2022-11-10T13:10:50.920Z,6.78
2022-11-10T13:14:02.612Z,2.47
2022-11-10T13:17:31.684Z,3.65
2022-11-10T13:20:54.221Z,6.20
2022-11-10T13:24:03.039Z,2.88
2022-11-10T13:27:33.489Z,6.13
2022-11-10T13:30:46.000Z,3.22
2022-11-10T13:34:07.534Z,4.60
2022-11-10T13:37:34.536Z,2.97
2022-11-10T13:40:44.302Z,4.78
2022-11-10T13:43:55.995Z,3.85
2022-11-10T13:47:07.580Z,8.70
2022-11-10T13:50:55.255Z,4.50
2022-11-10T13:54:19.336Z,4.25
2022-11-10T13:57:34.791Z,4.93
2022-11-10T14:00:49.732Z,6.68
2022-11-10T14:04:01.973Z,4.93
2022-11-10T14:07:19.463Z,6.00
2022-11-10T14:10:47.503Z,4.95
2022-11-10T14:14:02.184Z,4.60
2022-11-10T14:20:40.872Z,2.33
2022-11-10T14:24:04.172Z,3.70
2022-11-10T14:27:16.002Z,5.28
2022-11-10T14:30:26.453Z,3.67
2022-11-10T14:33:35.676Z,8.55
2022-11-10T14:36:55.577Z,5.90
2022-11-10T14:40:12.211Z,8.30
2022-11-10T14:43:33.664Z,1.85
2022-11-10T14:46:42.512Z,6.05
2022-11-10T14:50:13.668Z,4.45
2022-11-10T14:53:29.188Z,4.90
2022-11-10T14:56:42.481Z,4.13
2022-11-10T14:59:52.378Z,9.80
2022-11-10T15:03:01.305Z,4.80
2022-11-10T15:06:12.608Z,5.43
2022-11-10T15:09:31.024Z,3.47
2022-11-10T15:12:42.240Z,7.13
2022-11-10T15:15:53.570Z,6.18
2022-11-10T15:19:31.228Z,10.07
2022-11-10T15:22:40.328Z,3.28
2022-11-10T15:25:53.133Z,4.93
2022-11-10T15:29:03.479Z,5.05
2022-11-10T15:32:20.911Z,6.95
2022-11-10T15:35:31.795Z,6.10
2022-11-10T15:38:41.154Z,4.70
2022-11-10T15:41:57.181Z,4.15
2022-11-10T15:45:06.501Z,6.80
2022-11-10T15:48:18.189Z,5.45
2022-11-10T15:51:27.417Z,5.47
2022-11-10T15:54:36.824Z,5.15
2022-11-10T15:57:45.899Z,4.70
2022-11-10T16:00:54.769Z,5.43
2022-11-10T16:04:03.617Z,10.02
2022-11-10T16:07:12.659Z,4.18
2022-11-10T16:10:24.053Z,8.18
2022-11-10T16:13:35.191Z,4.15
2022-11-10T16:16:44.567Z,8.13
2022-11-10T16:19:53.636Z,13.40
2022-11-10T16:23:02.477Z,9.95
2022-11-10T16:26:15.230Z,12.73
2022-11-10T16:29:24.660Z,6.72
2022-11-10T16:32:34.097Z,4.53
2022-11-10T16:35:43.631Z,12.25
2022-11-10T16:38:54.074Z,9.57
2022-11-10T16:42:02.893Z,14.68
2022-11-10T16:45:19.658Z,6.90
2022-11-10T16:48:32.892Z,9.27
2022-11-10T16:51:48.613Z,6.90
2022-11-10T16:54:58.305Z,8.93
2022-11-10T16:58:08.634Z,6.00
2022-11-10T17:01:21.656Z,6.50
2022-11-10T17:04:30.908Z,8.13
2022-11-10T17:07:42.825Z,6.10
2022-11-10T17:10:52.601Z,6.05
2022-11-10T17:14:02.041Z,6.40
2022-11-10T17:17:18.349Z,8.90
2022-11-10T17:20:34.547Z,6.00
2022-11-10T17:23:43.737Z,8.23
2022-11-10T17:26:52.837Z,6.00
2022-11-10T17:30:02.121Z,7.22
2022-11-10T17:33:12.545Z,5.03
2022-11-10T17:36:23.520Z,11.95
2022-11-10T17:39:33.419Z,10.38
2022-11-10T17:42:42.391Z,15.73
2022-11-10T17:45:51.464Z,13.43
2022-11-10T17:49:02.946Z,11.43
2022-11-10T17:52:17.883Z,14.18
2022-11-10T17:55:33.732Z,13.32
2022-11-10T17:58:43.503Z,8.95
2022-11-10T18:01:52.357Z,11.52
2022-11-10T18:05:01.357Z,9.80
2022-11-10T18:08:11.716Z,7.57
2022-11-10T18:11:20.844Z,9.68
2022-11-10T18:14:30.352Z,10.73
2022-11-10T18:17:40.329Z,14.85
2022-11-10T18:20:49.345Z,8.50
2022-11-10T18:23:58.639Z,14.10
2022-11-10T18:27:07.858Z,16.67
2022-11-10T18:30:18.213Z,14.63
2022-11-10T18:33:27.208Z,14.60
2022-11-10T18:36:35.911Z,12.43
2022-11-10T18:39:45.210Z,11.25
2022-11-10T18:43:00.765Z,16.65
2022-11-10T18:46:13.748Z,24.15
2022-11-10T18:49:22.458Z,27.90
2022-11-10T18:52:31.288Z,23.77
2022-11-10T18:55:45.275Z,16.50
2022-11-10T18:58:56.906Z,16.00
2022-11-10T19:02:06.374Z,19.27
2022-11-10T19:05:15.562Z,21.40
2022-11-10T19:08:26.102Z,19.73
2022-11-10T19:11:35.167Z,17.63
2022-11-10T19:14:44.263Z,29.38
2022-11-10T19:17:52.969Z,27.00
2022-11-10T19:21:07.440Z,31.42
2022-11-10T19:24:27.187Z,30.08
2022-11-10T19:27:36.842Z,27.83
2022-11-10T19:30:45.632Z,22.17
2022-11-10T19:33:56.168Z,28.40
2022-11-10T19:37:05.713Z,27.35
2022-11-10T19:40:14.884Z,35.08
2022-11-10T19:43:24.547Z,35.42
2022-11-10T19:46:36.690Z,41.67
2022-11-10T19:49:45.509Z,29.60
2022-11-10T19:52:54.343Z,36.97
2022-11-10T19:56:05.907Z,35.00
2022-11-10T19:59:15.279Z,30.55
2022-11-10T20:02:24.409Z,27.38
2022-11-10T20:05:33.746Z,36.97
2022-11-10T20:08:44.232Z,36.88
2022-11-10T20:11:52.920Z,27.42
2022-11-10T20:15:01.982Z,22.80
2022-11-10T20:18:11.544Z,26.27
2022-11-10T20:21:23.398Z,16.27
2022-11-10T20:24:33.375Z,23.83
2022-11-10T20:27:42.813Z,21.88
2022-11-10T20:30:55.694Z,23.10
2022-11-10T20:34:04.767Z,24.40
2022-11-10T20:37:13.901Z,24.02
2022-11-10T20:40:43.530Z,18.88
2022-11-10T20:43:53.001Z,21.92
2022-11-10T20:47:01.832Z,17.90
2022-11-10T20:50:14.894Z,16.75
2022-11-10T20:53:28.995Z,18.60
2022-11-10T20:56:38.180Z,25.85
2022-11-10T20:59:47.443Z,17.70
2022-11-10T21:02:56.418Z,21.75
2022-11-10T21:06:05.758Z,20.52
2022-11-10T21:09:14.787Z,16.40
2022-11-10T21:12:42.365Z,17.27
2022-11-10T21:15:57.366Z,17.05
2022-11-10T21:19:06.506Z,23.75
2022-11-10T21:22:15.312Z,21.33
2022-11-10T21:25:23.921Z,18.13
2022-11-10T21:28:33.248Z,16.27
2022-11-10T21:31:42.767Z,14.40
2022-11-10T21:34:51.684Z,15.55
2022-11-10T21:38:00.787Z,20.92
2022-11-10T21:41:09.733Z,21.73
2022-11-10T21:44:18.570Z,20.08
2022-11-10T21:47:27.571Z,24.85
2022-11-10T21:50:36.374Z,205.38
2022-11-10T21:53:45.424Z,175.23
2022-11-10T21:56:54.213Z,25.00
2022-11-10T22:00:03.902Z,20.40
2022-11-10T22:03:12.795Z,34.90
2022-11-10T22:06:22.004Z,46.22
2022-11-10T22:09:49.594Z,39.08
2022-11-10T22:13:17.276Z,34.47
2022-11-10T22:16:48.077Z,31.92
2022-11-10T22:19:57.204Z,27.90
2022-11-10T22:23:06.126Z,26.25
2022-11-10T22:26:15.359Z,25.27
2022-11-10T22:29:31.175Z,28.27
2022-11-10T22:32:41.096Z,28.08
2022-11-10T22:35:57.247Z,24.13
2022-11-10T22:39:06.835Z,21.60
2022-11-10T22:42:34.523Z,18.42
2022-11-10T22:45:44.818Z,14.32
2022-11-10T22:48:53.773Z,15.48
2022-11-10T22:52:02.739Z,16.38
2022-11-10T22:55:11.742Z,20.00
2022-11-10T22:58:20.914Z,14.43
2022-11-10T23:01:29.867Z,17.52
2022-11-10T23:04:38.828Z,19.50
2022-11-10T23:07:48.558Z,21.73
2022-11-10T23:11:05.773Z,20.35
2022-11-10T23:14:14.685Z,21.92
2022-11-10T23:17:23.507Z,20.75
2022-11-10T23:20:32.553Z,18.17
2022-11-10T23:23:42.581Z,18.08
2022-11-10T23:26:51.880Z,18.75
2022-11-10T23:30:01.421Z,16.02
2022-11-10T23:33:10.639Z,17.52
2022-11-10T23:36:22.022Z,14.38
2022-11-10T23:39:30.647Z,15.38
2022-11-10T23:42:39.536Z,15.70
2022-11-10T23:46:05.953Z,18.30
2022-11-10T23:49:15.675Z,24.08
2022-11-10T23:52:27.641Z,20.42
2022-11-10T23:55:36.487Z,20.23
2022-11-10T23:58:45.448Z,15.00
